Time;durP1;ratioP1;P1;durP2;ratioP2;P2;SDS_P1;SDS_P2;PMS_P1;PMS_P2;Temp;Humidity;BMP_temperature;BMP_pressure;BME280_temperature;BME280_humidity;BME280_pressure;Samples;Min_cycle;Max_cycle;Signal;HPM_P1;HPM_P2
2021/10/10 00:03:21;;;;;;;1999.90;999.90;;;;;;;7.73;66.49;102684.22;15612598;28;20053;-59
2021/10/10 00:10:53;;;;;;;;;;;;;;;7.73;66.87;102673.94;15611936;28;20481;-61
2021/10/10 00:18:27;;;;;;;1999.90;999.90;;;;;;;7.66;66.68;102666.94;15610473;28;19928;-59
2021/10/10 00:25:59;;;;;;;1999.90;999.90;;;;;;;7.35;68.11;102663.06;15611504;28;20046;-59
2021/10/10 00:33:35;;;;;;;1999.90;999.90;;;;;;;7.62;66.89;102654.69;15671369;28;20041;-58
2021/10/10 00:41:08;;;;;;;1999.90;999.90;;;;;;;7.50;67.23;102652.06;15670764;28;20434;-57
2021/10/10 00:48:42;;;;;;;1999.90;999.90;;;;;;;7.46;66.71;102646.22;15672151;28;20048;-56
2021/10/10 00:56:16;;;;;;;1999.90;999.90;;;;;;;7.42;66.35;102658.97;15670682;28;20040;-54
2021/10/10 01:03:49;;;;;;;1999.90;999.90;;;;;;;7.45;66.22;102646.47;15669600;28;20363;-59
2021/10/10 01:11:22;;;;;;;;;;;;;;;7.45;66.62;102638.97;15680513;28;20048;-56
2021/10/10 01:18:57;;;;;;;1999.90;999.90;;;;;;;6.79;69.54;102629.19;15683306;28;19920;-59
2021/10/10 01:26:31;;;;;;;1999.90;999.90;;;;;;;6.57;70.63;102626.47;15677580;28;20052;-58
2021/10/10 01:34:05;;;;;;;1999.90;999.90;;;;;;;6.59;69.60;102616.78;15620573;28;20061;-59
2021/10/10 01:41:39;;;;;;;1999.90;999.90;;;;;;;6.93;68.74;102616.56;15619054;28;20076;-55
2021/10/10 01:49:12;;;;;;;1999.90;999.90;;;;;;;6.82;68.85;102614.78;15634635;22;20053;-62
2021/10/10 01:56:46;;;;;;;1999.90;999.90;;;;;;;6.86;69.06;102602.91;15625083;28;20045;-61
2021/10/10 02:04:18;;;;;;;;;;;;;;;6.88;69.00;102600.72;15607145;28;20045;-60
2021/10/10 02:11:52;;;;;;;1999.90;999.90;;;;;;;6.69;69.71;102590.25;15624507;28;20332;-58
2021/10/10 02:19:24;;;;;;;;;;;;;;;6.78;68.76;102586.75;15623555;28;20041;-58
2021/10/10 02:26:58;;;;;;;1999.90;999.90;;;;;;;6.69;67.78;102579.16;15623081;28;19921;-60
2021/10/10 02:34:30;;;;;;;;;;;;;;;6.68;67.74;102588.56;15641026;28;20068;-61
2021/10/10 02:42:04;;;;;;;1999.90;999.90;;;;;;;6.48;68.61;102592.81;15629989;28;19960;-61
2021/10/10 02:49:38;;;;;;;1999.90;999.90;;;;;;;6.23;68.55;102575.84;15623008;28;20063;-59
2021/10/10 02:57:11;;;;;;;1999.90;999.90;;;;;;;6.19;68.89;102572.75;15603753;28;20050;-58
2021/10/10 03:04:44;;;;;;;1999.90;999.90;;;;;;;6.09;69.95;102556.00;15622513;28;20046;-59
2021/10/10 03:12:17;;;;;;;1999.90;999.90;;;;;;;5.84;70.97;102561.19;15636736;28;20472;-61
2021/10/10 03:19:50;;;;;;;;;;;;;;;6.26;69.48;102556.78;15637403;28;20041;-59
2021/10/10 03:27:26;;;;;;;1999.90;999.90;;;;;;;6.18;69.77;102553.63;15608832;28;19976;-61
2021/10/10 03:34:58;;;;;;;1999.90;999.90;;;;;;;6.13;69.91;102546.06;15558511;28;20308;-61
2021/10/10 03:42:32;;;;;;;1999.90;999.90;;;;;;;6.14;69.80;102547.72;15558160;28;20042;-62
2021/10/10 03:50:06;;;;;;;1999.90;999.90;;;;;;;5.71;71.90;102540.22;15539471;28;20050;-60
2021/10/10 03:57:39;;;;;;;1999.90;999.90;;;;;;;5.72;71.50;102528.03;15538616;28;20042;-61
2021/10/10 04:05:19;;;;;;;;;;;;;;;5.72;71.79;102531.66;15539219;28;20398;-62
2021/10/10 04:12:53;;;;;;;1999.90;999.90;;;;;;;5.50;72.77;102530.78;15556017;28;19960;-63
2021/10/10 04:20:26;;;;;;;1999.90;999.90;;;;;;;5.20;73.77;102529.25;15555373;28;20045;-59
2021/10/10 04:27:59;;;;;;;1999.90;999.90;;;;;;;5.18;74.29;102522.28;15555579;28;20107;-59
2021/10/10 04:35:31;;;;;;;1999.90;999.90;;;;;;;5.22;74.40;102531.78;15616194;28;20132;-59
2021/10/10 04:43:08;;;;;;;1999.90;999.90;;;;;;;5.39;73.29;102529.81;15631336;28;20072;-58
2021/10/10 04:50:40;;;;;;;1999.90;999.90;;;;;;;5.38;73.14;102524.53;15597913;28;20041;-62
2021/10/10 04:58:14;;;;;;;1999.90;999.90;;;;;;;5.50;72.56;102525.25;15614022;28;20065;-61
2021/10/10 05:05:47;;;;;;;;;;;;;;;5.41;72.01;102513.78;15615987;28;20048;-60
2021/10/10 05:13:21;;;;;;;1999.90;999.90;;;;;;;5.26;73.23;102518.25;15615969;28;19948;-59
2021/10/10 05:20:53;;;;;;;1999.90;999.90;;;;;;;5.05;73.84;102512.41;15630959;28;20125;-61
2021/10/10 05:28:27;;;;;;;1999.90;999.90;;;;;;;4.80;75.48;102510.06;15593743;28;20042;-58
2021/10/10 05:35:59;;;;;;;1999.90;999.90;;;;;;;4.80;74.59;102504.53;15536800;28;20538;-61
2021/10/10 05:43:33;;;;;;;1999.90;999.90;;;;;;;5.01;74.91;102514.00;15554132;28;20077;-64
2021/10/10 05:51:05;;;;;;;;;;;;;;;4.94;74.51;102524.41;15535823;28;20548;-58
2021/10/10 05:58:42;;;;;;;1999.90;999.90;;;;;;;4.69;75.43;102512.88;15543570;28;19929;-59
2021/10/10 06:06:14;;;;;;;1999.90;999.90;;;;;;;4.94;74.76;102524.41;15562306;28;20137;-64
2021/10/10 06:13:48;;;;;;;1999.90;999.90;;;;;;;5.05;74.74;102526.25;15562825;28;20077;-62
2021/10/10 06:21:21;;;;;;;1999.90;999.90;;;;;;;5.17;74.37;102523.38;15563111;28;20041;-62
2021/10/10 06:28:55;;;;;;;1999.90;999.90;;;;;;;5.22;75.14;102518.78;15587228;28;20056;-61
2021/10/10 06:36:27;;;;;;;;;;;;;;;5.60;74.19;102516.25;15623952;28;20379;-61
2021/10/10 06:44:00;;;;;;;1999.90;999.90;;;;;;;5.83;74.17;102526.25;15606166;28;20020;-60
2021/10/10 06:51:33;;;;;;;;;;;;;;;7.27;69.06;102519.97;15626725;28;20513;-60
2021/10/10 06:59:07;;;;;;;1999.90;999.90;;;;;;;7.79;67.05;102522.75;15621779;28;20012;-61
2021/10/10 07:06:39;;;;;;;1999.90;999.90;;;;;;;8.71;63.31;102528.63;15621871;28;20520;-61
2021/10/10 07:14:13;;;;;;;1999.90;999.90;;;;;;;8.92;62.69;102529.50;15621385;28;20069;-62
2021/10/10 07:21:55;;;;;;;1999.90;999.90;;;;;;;9.24;61.47;102529.19;15636249;28;20056;-62
2021/10/10 07:29:29;;;;;;;1999.90;999.90;;;;;;;10.13;58.46;102538.72;15590547;28;20046;-61
2021/10/10 07:37:02;;;;;;;1999.90;999.90;;;;;;;10.62;57.38;102546.28;15558950;28;20124;-61
2021/10/10 07:44:40;;;;;;;1999.90;999.90;;;;;;;10.75;57.07;102550.41;15526074;28;20049;-63
2021/10/10 07:52:13;;;;;;;1999.90;999.90;;;;;;;10.98;57.15;102549.66;15558676;28;20144;-61
2021/10/10 07:59:47;;;;;;;1999.90;999.90;;;;;;;11.78;56.53;102546.38;15542548;28;20041;-60
2021/10/10 08:07:19;;;;;;;1999.90;999.90;;;;;;;11.95;55.10;102545.91;15558415;28;20129;-60
2021/10/10 08:14:53;;;;;;;1999.90;999.90;;;;;;;12.07;54.94;102541.56;15631414;28;20420;-61
2021/10/10 08:22:25;;;;;;;;;;;;;;;12.69;52.79;102531.19;15678539;28;20045;-62
2021/10/10 08:29:59;;;;;;;1999.90;999.90;;;;;;;13.43;52.23;102524.91;15642959;28;19941;-61
2021/10/10 08:37:31;;;;;;;1999.90;999.90;;;;;;;13.76;50.01;102526.53;15679914;28;20067;-63
2021/10/10 08:45:08;;;;;;;1999.90;999.90;;;;;;;13.65;49.94;102529.81;15653080;28;20501;-62
2021/10/10 08:52:42;;;;;;;1999.90;999.90;;;;;;;14.30;48.18;102529.63;15682116;28;20037;-60
2021/10/10 09:00:18;;;;;;;;;;;;;;;15.42;46.22;102522.09;15659901;28;20041;-60
2021/10/10 09:07:50;;;;;;;1999.90;999.90;;;;;;;14.26;48.42;102526.59;15659527;28;19920;-61
2021/10/10 09:15:25;;;;;;;1999.90;999.90;;;;;;;15.01;46.21;102513.91;15659070;28;20560;-62
2021/10/10 09:22:58;;;;;;;1999.90;999.90;;;;;;;15.54;44.08;102508.28;15659446;28;20045;-58
2021/10/10 09:30:49;;;;;;;1999.90;999.90;;;;;;;16.10;44.82;102506.69;15623439;28;20039;-61
2021/10/10 09:38:27;;;;;;;;;;;;;;;17.47;38.73;102508.97;15614301;28;20474;-58
2021/10/10 09:46:00;;;;;;;1999.90;999.90;;;;;;;16.87;40.96;102509.91;15632124;28;19925;-61
2021/10/10 09:53:35;;;;;;;1999.90;999.90;;;;;;;16.22;39.90;102496.75;15625979;28;20534;-60
2021/10/10 10:01:14;;;;;;;1999.90;999.90;;;;;;;16.67;38.78;102492.50;15621470;28;20049;-60
2021/10/10 10:08:47;;;;;;;1999.90;999.90;;;;;;;17.50;37.66;102495.00;15604824;28;20346;-58
2021/10/10 10:16:22;;;;;;;1999.90;999.90;;;;;;;17.99;36.02;102497.50;15604101;28;20060;-60
2021/10/10 10:23:59;;;;;;;1999.90;999.90;;;;;;;19.07;34.81;102487.22;15621699;28;20045;-59
2021/10/10 10:31:34;;;;;;;1999.90;999.90;;;;;;;19.58;32.81;102487.78;15614513;28;20089;-61
2021/10/10 10:39:33;;;;;;;1999.90;999.90;;;;;;;19.07;33.94;102472.19;15616597;28;20046;-60
2021/10/10 10:47:09;;;;;;;1999.90;999.90;;;;;;;19.57;33.12;102474.81;15621134;28;20091;-65
2021/10/10 10:54:41;;;;;;;1999.90;999.90;;;;;;;19.81;33.69;102472.03;15615605;28;20514;-57
2021/10/10 11:02:16;;;;;;;1999.90;999.90;;;;;;;20.46;32.74;102466.41;15636700;28;20041;-59
2021/10/10 11:09:55;;;;;;;1999.90;999.90;;;;;;;21.65;31.22;102460.00;15592595;28;20409;-60
2021/10/10 11:17:29;;;;;;;1999.90;999.90;;;;;;;22.51;29.60;102463.69;15663692;28;20039;-59
2021/10/10 11:25:01;;;;;;;1999.90;999.90;;;;;;;23.22;28.59;102455.78;15665015;28;20049;-61
2021/10/10 11:32:50;;;;;;;1999.90;999.90;;;;;;;23.86;27.33;102436.97;15607281;28;20045;-61
2021/10/10 11:40:22;;;;;;;1999.90;999.90;;;;;;;23.63;28.82;102416.25;15619016;28;20107;-60
2021/10/10 11:47:57;;;;;;;1999.90;999.90;;;;;;;21.48;29.76;102404.41;15617888;28;20076;-61
2021/10/10 11:55:35;;;;;;;1999.90;999.90;;;;;;;21.91;29.57;102400.56;15617534;28;20042;-61
2021/10/10 12:03:10;;;;;;;1999.90;999.90;;;;;;;23.46;25.71;102391.94;15599775;28;20418;-60
2021/10/10 12:10:45;;;;;;;1999.90;999.90;;;;;;;21.73;28.68;102376.59;15617309;28;20033;-59
2021/10/10 12:18:19;;;;;;;1999.90;999.90;;;;;;;23.29;27.16;102367.63;15632106;28;20220;-61
2021/10/10 12:25:58;;;;;;;1999.90;999.90;;;;;;;24.01;26.44;102352.50;15597838;28;20057;-61
2021/10/10 12:33:34;;;;;;;1999.90;999.90;;;;;;;23.24;27.21;102348.84;15554795;28;20045;-60
2021/10/10 12:41:26;;;;;;;1999.90;999.90;;;;;;;25.22;24.73;102336.75;15537341;28;20041;-61
2021/10/10 12:49:04;;;;;;;1999.90;999.90;;;;;;;27.03;23.31;102336.88;15554194;28;20462;-61
2021/10/10 12:56:37;;;;;;;1999.90;999.90;;;;;;;22.76;26.78;102319.91;15554453;28;20514;-61
2021/10/10 13:04:10;;;;;;;1999.90;999.90;;;;;;;24.44;24.52;102316.78;15557869;28;20046;-61
2021/10/10 13:11:44;;;;;;;1999.90;999.90;;;;;;;25.38;23.83;102325.88;15548624;28;20033;-60
2021/10/10 13:19:19;;;;;;;1999.90;999.90;;;;;;;19.26;31.75;102311.19;15548124;28;20053;-59
2021/10/10 13:26:52;;;;;;;1999.90;999.90;;;;;;;18.11;33.31;102294.19;15565523;28;20058;-61
2021/10/10 13:34:26;;;;;;;1999.90;999.90;;;;;;;18.32;32.81;102297.78;15531692;28;20042;-61
2021/10/10 13:41:58;;;;;;;1999.90;999.90;;;;;;;17.30;34.65;102282.16;15565239;28;20166;-62
2021/10/10 13:49:32;;;;;;;1999.90;999.90;;;;;;;17.63;33.56;102272.97;15603288;23;20072;-62
2021/10/10 13:57:04;;;;;;;1999.90;999.90;;;;;;;17.04;34.28;102270.19;15601427;28;20041;-63
2021/10/10 14:04:40;;;;;;;1999.90;999.90;;;;;;;16.99;34.99;102257.13;15600919;28;20091;-62
2021/10/10 14:12:12;;;;;;;1999.90;999.90;;;;;;;17.02;34.49;102258.44;15600094;28;20129;-64
2021/10/10 14:19:46;;;;;;;1999.90;999.90;;;;;;;16.76;34.42;102260.53;15583304;28;20064;-63
2021/10/10 14:27:19;;;;;;;1999.90;999.90;;;;;;;16.68;34.65;102251.78;15618153;28;20141;-63
2021/10/10 14:34:54;;;;;;;1999.90;999.90;;;;;;;16.87;35.37;102239.25;15615778;28;20041;-63
2021/10/10 14:42:34;;;;;;;1999.90;999.90;;;;;;;16.88;35.58;102246.53;15600206;28;20038;-64
2021/10/10 14:50:09;;;;;;;1999.90;999.90;;;;;;;16.78;35.74;102238.47;15616940;28;20435;-63
2021/10/10 14:57:43;;;;;;;1999.90;999.90;;;;;;;16.45;35.33;102231.44;15615834;28;20064;-62
2021/10/10 15:05:17;;;;;;;1999.90;999.90;;;;;;;16.52;36.71;102230.09;15615057;28;20596;-62
2021/10/10 15:12:49;;;;;;;1999.90;999.90;;;;;;;16.10;37.09;102221.44;15596805;28;20049;-63
2021/10/10 15:20:23;;;;;;;1999.90;999.90;;;;;;;15.79;40.62;102211.22;15615192;28;20052;-64
2021/10/10 15:27:55;;;;;;;1999.90;999.90;;;;;;;15.56;40.49;102210.53;15596171;28;20049;-62
2021/10/10 15:35:29;;;;;;;1999.90;999.90;;;;;;;16.07;42.21;102216.47;15551731;28;20141;-61
2021/10/10 15:43:03;;;;;;;1999.90;999.90;;;;;;;16.21;39.32;102207.81;15552167;28;20506;-62
2021/10/10 15:50:37;;;;;;;1999.90;999.90;;;;;;;15.93;39.75;102196.13;15534311;28;20430;-62
2021/10/10 15:58:09;;;;;;;1999.90;999.90;;;;;;;15.79;41.77;102199.13;15551184;28;20062;-62
2021/10/10 16:05:48;;;;;;;1999.90;999.90;;;;;;;15.68;42.36;102180.94;15533336;28;20052;-61
2021/10/10 16:13:20;;;;;;;1999.90;999.90;;;;;;;15.50;46.14;102191.31;15593960;28;20050;-59
2021/10/10 16:20:54;;;;;;;1999.90;999.90;;;;;;;14.98;43.76;102180.03;15655654;28;20482;-61
2021/10/10 16:28:26;;;;;;;1999.90;999.90;;;;;;;14.69;48.47;102184.28;15570446;28;20046;-62
2021/10/10 16:36:04;;;;;;;1999.90;999.90;;;;;;;14.00;46.35;102169.03;15577194;28;20222;-61
2021/10/10 16:43:36;;;;;;;1999.90;999.90;;;;;;;12.97;49.79;102148.25;15591341;28;20311;-61
2021/10/10 16:51:10;;;;;;;1999.90;999.90;;;;;;;13.51;50.28;102154.84;15601349;28;20509;-61
2021/10/10 16:58:43;;;;;;;1999.90;999.90;;;;;;;12.96;50.72;102151.38;15631036;28;20060;-59
2021/10/10 17:06:17;;;;;;;1999.90;999.90;;;;;;;12.96;52.71;102148.56;15610622;28;20048;-59
2021/10/10 17:13:49;;;;;;;1999.90;999.90;;;;;;;12.50;54.15;102157.94;15605837;28;20401;-60
2021/10/10 17:21:25;;;;;;;1999.90;999.90;;;;;;;12.07;56.80;102161.00;15617680;28;20042;-58
2021/10/10 17:28:57;;;;;;;1999.90;999.90;;;;;;;11.83;57.02;102144.38;15602143;28;20049;-61
2021/10/10 17:36:33;;;;;;;1999.90;999.90;;;;;;;11.67;57.13;102148.56;15607197;28;20046;-63
2021/10/10 17:44:07;;;;;;;1999.90;999.90;;;;;;;11.49;57.54;102153.06;15603601;28;20050;-55
2021/10/10 17:51:40;;;;;;;1999.90;999.90;;;;;;;11.33;58.91;102139.63;15610147;28;20049;-58
2021/10/10 17:59:19;;;;;;;1999.90;999.90;;;;;;;11.03;59.30;102146.50;15612981;28;20066;-62
2021/10/10 18:14:43;;;;;;;1999.90;999.90;;;;;;;10.63;61.00;102126.41;15608738;28;20050;-60
2021/10/10 18:22:18;;;;;;;1999.90;999.90;;;;;;;10.43;61.48;102127.50;15598911;28;20132;-62
2021/10/10 18:29:50;;;;;;;1999.90;999.90;;;;;;;10.18;62.23;102128.59;15655868;28;20506;-61
2021/10/10 18:37:24;;;;;;;1999.90;999.90;;;;;;;10.49;61.58;102134.66;15616548;28;20060;-61
2021/10/10 18:44:56;;;;;;;1999.90;999.90;;;;;;;10.51;60.94;102135.19;15600753;28;20057;-62
2021/10/10 18:52:31;;;;;;;1999.90;999.90;;;;;;;10.47;61.76;102127.72;15636631;28;20443;-63
2021/10/10 19:00:09;;;;;;;1999.90;999.90;;;;;;;10.27;63.51;102112.88;15615642;28;20092;-63
2021/10/10 19:07:43;;;;;;;1999.90;999.90;;;;;;;10.24;62.86;102116.28;15630266;28;20045;-62
2021/10/10 19:15:16;;;;;;;1999.90;999.90;;;;;;;10.17;62.48;102123.31;15633247;28;20457;-63
2021/10/10 19:22:51;;;;;;;1999.90;999.90;;;;;;;9.91;64.42;102115.22;15623642;28;20045;-59
2021/10/10 19:30:24;;;;;;;;;;;;;;;9.97;64.49;102110.41;15612674;28;20048;-63
2021/10/10 19:37:58;;;;;;;1999.90;999.90;;;;;;;9.94;63.98;102103.47;15607865;28;20032;-61
2021/10/10 19:45:31;;;;;;;1999.90;999.90;;;;;;;9.60;65.91;102095.19;15587399;28;20046;-62
2021/10/10 19:53:06;;;;;;;1999.90;999.90;;;;;;;9.64;65.26;102096.25;15605305;22;20049;-63
2021/10/10 20:00:38;;;;;;;1999.90;999.90;;;;;;;9.79;63.55;102089.69;15575335;28;20073;-59
2021/10/10 20:08:12;;;;;;;1999.90;999.90;;;;;;;9.72;64.87;102084.47;15596195;28;20384;-57
2021/10/10 20:15:46;;;;;;;1999.90;999.90;;;;;;;9.83;63.62;102087.97;15564807;28;20100;-60
2021/10/10 20:23:22;;;;;;;1999.90;999.90;;;;;;;9.52;63.71;102068.78;15610770;28;20044;-62
2021/10/10 20:30:54;;;;;;;1999.90;999.90;;;;;;;9.36;64.44;102071.97;15587794;28;20050;-57
2021/10/10 20:38:28;;;;;;;1999.90;999.90;;;;;;;9.05;65.24;102075.00;15605469;28;20060;-58
2021/10/10 20:46:00;;;;;;;;;;;;;;;8.62;66.95;102068.34;15586709;28;20084;-59
2021/10/10 20:53:35;;;;;;;1999.90;999.90;;;;;;;8.41;66.76;102062.06;15615610;28;19921;-60
2021/10/10 21:01:08;;;;;;;1999.90;999.90;;;;;;;8.05;67.80;102053.84;15615629;28;20041;-61
2021/10/10 21:08:42;;;;;;;1999.90;999.90;;;;;;;8.17;67.34;102059.09;15614479;28;20041;-60
2021/10/10 21:16:15;;;;;;;1999.90;999.90;;;;;;;7.96;67.37;102051.94;15582281;28;20526;-59
2021/10/10 21:23:48;;;;;;;1999.90;999.90;;;;;;;7.72;68.31;102035.91;15598397;28;20041;-59
2021/10/10 21:31:29;;;;;;;;;;;;;;;7.72;67.42;102043.41;15623721;28;20053;-59
2021/10/10 21:39:04;;;;;;;1999.90;999.90;;;;;;;7.52;67.55;102034.00;15587370;28;19921;-61
2021/10/10 21:46:36;;;;;;;1999.90;999.90;;;;;;;7.21;68.99;102032.38;15536634;28;20042;-59
2021/10/10 21:54:10;;;;;;;1999.90;999.90;;;;;;;7.16;68.47;102027.63;15625457;28;20064;-59
2021/10/10 22:01:43;;;;;;;1999.90;999.90;;;;;;;7.10;68.56;102028.75;15625785;28;20034;-63
2021/10/10 22:09:18;;;;;;;1999.90;999.90;;;;;;;7.04;69.08;102027.09;15604718;28;20045;-60
2021/10/10 22:16:51;;;;;;;1999.90;999.90;;;;;;;7.06;68.49;102010.16;15581797;28;20049;-59
2021/10/10 22:24:27;;;;;;;1999.90;999.90;;;;;;;6.98;68.89;102010.69;15623700;28;20449;-60
2021/10/10 22:32:02;;;;;;;1999.90;999.90;;;;;;;6.60;69.34;102001.81;15619767;28;20103;-59
2021/10/10 22:39:36;;;;;;;1999.90;999.90;;;;;;;6.53;69.14;101998.47;15599889;28;20052;-62
2021/10/10 22:47:11;;;;;;;1999.90;999.90;;;;;;;6.50;69.45;102004.56;15585359;28;20045;-58
2021/10/10 22:54:45;;;;;;;1999.90;999.90;;;;;;;6.50;68.57;101991.53;15604585;28;20041;-59
2021/10/10 23:02:17;;;;;;;1999.90;999.90;;;;;;;6.36;69.69;101969.06;15601084;28;20057;-62
2021/10/10 23:09:51;;;;;;;1999.90;999.90;;;;;;;6.46;69.63;101946.06;15614071;28;20041;-61
2021/10/10 23:17:24;;;;;;;1999.90;999.90;;;;;;;6.50;68.92;101936.06;15560566;28;20045;-61
2021/10/10 23:24:58;;;;;;;1999.90;999.90;;;;;;;6.32;68.87;101931.06;15587745;28;20412;-59
2021/10/10 23:32:30;;;;;;;1999.90;999.90;;;;;;;6.13;69.94;101929.91;15582596;28;20228;-59
2021/10/10 23:40:05;;;;;;;1999.90;999.90;;;;;;;6.01;69.38;101927.38;15612507;28;20077;-61
2021/10/10 23:47:37;;;;;;;1999.90;999.90;;;;;;;5.59;70.29;101919.16;15580100;28;20119;-59
2021/10/10 23:55:11;;;;;;;1999.90;999.90;;;;;;;5.77;69.78;101915.94;15600256;28;20049;-60
